Huvudsida
METAR-TAF:

METAR-TAF

Flygplatser :

Oljeplattform

Heimdal, Norge

latitud: 59-34-12N, longitud: 2-13-48E, höjd: 10 m

Aktuellt väderrapport

Denna rapport gjordes för 15 minuter sedan, klockan 21:20 UTC
Vind 26 kt från sydväst
Temperatur 8°C
Fuktighet 76%
Tryck 1033 hPa
Sikt 10 km eller mer

METAR: ENHM 192120Z AUTO 22026KT 9999NDV OVC033/// 08/04 Q1033 W08/S4

Tid: 22:35 (21:35 UTC)

Väderprognos

Denna rapport gjordes för 7 timmar och 35 minuter sedan, klockan 14:00 UTC
Prognos gäller från 19 kl. 15 UTC till 19 kl. 18 UTC
Vind 25 kt från sydväst
Sikt 10 km eller mer
Spridda moln på en höjd av 3000 ft

TAF: ENHM 191400Z 1915/1918 23025KT 9999 SCT030

Aktuella väderrapporter och prognoser från 4000 flygplatser (METAR- och TAF-rapporter).

De tillgängliga stationerna syns som gula och röda prickar på kartan.

För musen över prickarna för att se namnen på stationerna.

Klicka sedan för att få väderrapporter och prognoser.

För att ändra kartan: Klicka på de gröna knapparna med ett svart kors på för att zooma in; den gröna knappen med ett streck på för att zooma ut; eller på de gröna pilarna för angränsande kartor.


METAR-TAF: